createdAt,value
2023-06-05T00:00:10.769Z,4.78
2023-06-05T00:02:42.722Z,4.80
2023-06-05T00:05:12.843Z,4.78
2023-06-05T00:07:42.117Z,5.53
2023-06-05T00:10:11.270Z,4.55
2023-06-05T00:12:39.892Z,5.65
2023-06-05T00:15:09.393Z,5.75
2023-06-05T00:17:39.007Z,5.20
2023-06-05T00:20:11.328Z,5.00
2023-06-05T00:22:45.659Z,5.30
2023-06-05T00:25:14.444Z,5.47
2023-06-05T00:27:43.191Z,5.95
2023-06-05T00:30:12.291Z,5.20
2023-06-05T00:32:40.980Z,4.88
2023-06-05T00:35:11.342Z,4.80
2023-06-05T00:37:41.517Z,4.35
2023-06-05T00:40:10.783Z,4.80
2023-06-05T00:42:39.368Z,4.70
2023-06-05T00:45:10.308Z,4.63
2023-06-05T00:47:40.443Z,4.50
2023-06-05T00:50:12.940Z,4.80
2023-06-05T00:52:44.056Z,4.20
2023-06-05T00:55:13.271Z,4.63
2023-06-05T00:57:42.268Z,4.50
2023-06-05T01:00:13.816Z,4.50
2023-06-05T01:02:43.971Z,4.70
2023-06-05T01:05:12.811Z,4.47
2023-06-05T01:07:43.297Z,4.90
2023-06-05T01:10:12.894Z,4.40
2023-06-05T01:12:47.008Z,4.38
2023-06-05T01:15:17.518Z,4.70
2023-06-05T01:17:48.713Z,4.38
2023-06-05T01:20:21.378Z,4.10
2023-06-05T01:22:53.627Z,4.10
2023-06-05T01:25:24.276Z,4.57
2023-06-05T01:27:58.747Z,4.50
2023-06-05T01:30:33.042Z,4.60
2023-06-05T01:33:05.701Z,4.63
2023-06-05T01:35:38.224Z,4.32
2023-06-05T01:38:10.898Z,4.30
2023-06-05T01:40:41.035Z,4.57
2023-06-05T01:43:12.025Z,5.00
2023-06-05T01:45:42.591Z,4.55
2023-06-05T01:48:12.215Z,4.35
2023-06-05T01:50:43.548Z,5.13
2023-06-05T01:53:14.000Z,5.20
2023-06-05T01:55:42.793Z,4.80
2023-06-05T01:58:11.840Z,5.05
2023-06-05T02:00:40.443Z,4.82
2023-06-05T02:03:09.224Z,5.13
2023-06-05T02:08:07.088Z,4.80
2023-06-05T02:10:38.572Z,4.80
2023-06-05T02:13:07.400Z,4.93
2023-06-05T02:18:09.413Z,4.93
2023-06-05T02:20:38.473Z,4.43
2023-06-05T02:23:07.965Z,4.65
2023-06-05T02:25:38.311Z,4.88
2023-06-05T02:28:07.104Z,5.10
2023-06-05T02:30:35.771Z,4.75
2023-06-05T02:33:04.987Z,4.68
2023-06-05T02:35:36.960Z,5.30
2023-06-05T02:38:07.765Z,4.25
2023-06-05T02:40:37.897Z,4.75
2023-06-05T02:43:06.846Z,4.10
2023-06-05T02:48:05.740Z,4.18
2023-06-05T02:50:34.786Z,4.45
2023-06-05T02:53:06.913Z,3.80
2023-06-05T02:55:38.972Z,4.55
2023-06-05T02:58:14.130Z,4.30
2023-06-05T03:00:51.995Z,4.45
2023-06-05T03:03:27.207Z,4.05
2023-06-05T03:05:56.914Z,4.22
2023-06-05T03:08:28.057Z,4.43
2023-06-05T03:10:59.956Z,4.20
2023-06-05T03:13:28.916Z,4.18
2023-06-05T03:15:59.210Z,4.15
2023-06-05T03:18:31.970Z,4.35
2023-06-05T03:21:24.197Z,4.32
2023-06-05T03:23:53.491Z,4.22
2023-06-05T03:26:27.397Z,4.43
2023-06-05T03:28:56.924Z,4.20
2023-06-05T03:31:26.187Z,3.97
2023-06-05T03:33:54.948Z,3.58
2023-06-05T03:36:24.201Z,3.83
2023-06-05T03:38:53.766Z,3.85
2023-06-05T03:43:53.050Z,3.78
2023-06-05T03:48:57.435Z,3.80
2023-06-05T03:51:31.107Z,4.22
2023-06-05T03:54:00.924Z,3.55
2023-06-05T03:56:40.915Z,3.60
2023-06-05T03:59:22.274Z,3.65
2023-06-05T04:01:59.250Z,3.60
2023-06-05T04:04:27.987Z,3.03
2023-06-05T04:07:01.750Z,3.63
2023-06-05T04:09:32.647Z,3.50
2023-06-05T04:12:02.866Z,3.10
2023-06-05T04:14:32.940Z,2.97
2023-06-05T04:17:01.758Z,2.72
2023-06-05T04:19:30.456Z,2.65
2023-06-05T04:22:00.541Z,3.33
2023-06-05T04:24:30.611Z,3.45
2023-06-05T04:27:01.969Z,2.85
2023-06-05T04:29:33.615Z,2.78
2023-06-05T04:32:28.318Z,2.67
2023-06-05T04:34:57.380Z,2.70
2023-06-05T04:37:26.109Z,2.75
2023-06-05T04:39:56.310Z,2.72
2023-06-05T04:42:25.067Z,2.22
2023-06-05T04:45:02.891Z,2.63
2023-06-05T04:47:34.627Z,2.35
2023-06-05T04:50:05.498Z,2.58
2023-06-05T04:52:37.848Z,2.47
2023-06-05T04:55:07.562Z,2.60
2023-06-05T04:57:37.737Z,2.20
2023-06-05T05:00:12.356Z,11.00
2023-06-05T05:02:41.131Z,2.38
2023-06-05T05:07:42.225Z,2.50
2023-06-05T05:10:11.863Z,2.35
2023-06-05T05:12:43.471Z,2.53
2023-06-05T05:15:14.353Z,2.50
2023-06-05T05:17:53.424Z,1.88
2023-06-05T05:20:27.016Z,1.85
2023-06-05T05:22:57.172Z,1.80
2023-06-05T05:25:52.032Z,1.90
2023-06-05T05:28:21.320Z,2.05
2023-06-05T05:30:54.702Z,1.77
2023-06-05T05:33:24.418Z,3.38
2023-06-05T05:35:55.430Z,1.80
2023-06-05T05:40:53.607Z,2.00
2023-06-05T05:43:30.242Z,2.00
2023-06-05T05:46:02.315Z,2.03
2023-06-05T05:48:34.095Z,1.88
2023-06-05T05:51:08.587Z,1.98
2023-06-05T05:53:40.445Z,1.70
2023-06-05T05:56:11.954Z,2.28
2023-06-05T06:01:18.199Z,2.60
2023-06-05T06:03:46.929Z,1.92
2023-06-05T06:09:06.304Z,2.25
2023-06-05T06:12:07.203Z,2.35
2023-06-05T06:14:42.965Z,2.10
2023-06-05T06:17:14.034Z,2.17
2023-06-05T06:19:43.478Z,2.10
2023-06-05T06:22:15.334Z,2.00
2023-06-05T06:24:47.449Z,2.65
2023-06-05T06:27:33.917Z,2.10
2023-06-05T06:30:04.202Z,2.10
2023-06-05T06:32:37.022Z,1.90
2023-06-05T06:35:07.575Z,2.45
2023-06-05T06:37:37.125Z,2.00
2023-06-05T06:40:11.037Z,2.03
2023-06-05T06:42:40.146Z,2.33
2023-06-05T06:48:05.815Z,3.20
2023-06-05T06:50:36.029Z,3.10
2023-06-05T06:53:05.080Z,3.00
2023-06-05T06:58:02.956Z,3.10
2023-06-05T07:00:31.617Z,2.88
2023-06-05T07:03:01.623Z,2.50
2023-06-05T07:05:38.983Z,2.72
2023-06-05T07:08:12.630Z,2.63
2023-06-05T07:10:43.492Z,2.20
2023-06-05T07:13:12.537Z,2.88
2023-06-05T07:15:41.125Z,2.60
2023-06-05T07:18:42.054Z,2.72
2023-06-05T07:21:13.748Z,2.20
2023-06-05T07:23:43.324Z,2.10
2023-06-05T07:26:19.807Z,2.50
2023-06-05T07:28:49.422Z,2.53
2023-06-05T07:31:18.598Z,2.50
2023-06-05T07:33:48.742Z,2.53
2023-06-05T07:36:17.724Z,2.60
2023-06-05T07:38:46.318Z,2.20
2023-06-05T07:41:14.807Z,2.20
2023-06-05T07:43:43.483Z,2.60
2023-06-05T07:46:12.420Z,2.70
2023-06-05T07:48:41.025Z,2.45
2023-06-05T07:51:13.261Z,2.30
2023-06-05T07:53:42.123Z,2.35
2023-06-05T07:56:13.214Z,2.20
2023-06-05T07:58:42.885Z,2.33
2023-06-05T08:01:14.114Z,2.20
2023-06-05T08:03:50.082Z,2.25
2023-06-05T08:06:33.716Z,2.25
2023-06-05T08:09:13.917Z,1.98
2023-06-05T08:12:01.159Z,1.98
2023-06-05T08:14:29.802Z,1.65
2023-06-05T08:16:58.419Z,2.03
2023-06-05T08:19:26.986Z,2.28
2023-06-05T08:21:58.093Z,2.10
2023-06-05T08:24:28.301Z,2.30
2023-06-05T08:26:57.074Z,2.20
2023-06-05T08:29:25.664Z,2.28
2023-06-05T08:31:54.209Z,2.15
2023-06-05T08:34:22.680Z,2.20
2023-06-05T08:36:51.925Z,2.33
2023-06-05T08:39:21.919Z,2.28
2023-06-05T08:41:53.096Z,2.40
2023-06-05T08:44:21.674Z,2.38
2023-06-05T08:46:51.596Z,3.30
2023-06-05T08:49:25.566Z,2.50
2023-06-05T08:51:55.981Z,2.60
2023-06-05T08:54:26.961Z,2.63
2023-06-05T08:56:55.949Z,2.42
2023-06-05T08:59:26.067Z,2.70
2023-06-05T09:01:54.966Z,2.55
2023-06-05T09:04:26.533Z,2.40
2023-06-05T09:06:55.888Z,2.35
2023-06-05T09:09:26.782Z,2.53
2023-06-05T09:12:04.682Z,2.30
2023-06-05T09:14:34.047Z,2.22
2023-06-05T09:17:03.813Z,2.20
2023-06-05T09:19:42.322Z,2.13
2023-06-05T09:22:13.745Z,1.98
2023-06-05T09:24:44.946Z,2.20
2023-06-05T09:27:13.635Z,2.20
2023-06-05T09:32:20.974Z,2.67
2023-06-05T09:35:01.041Z,2.10
2023-06-05T09:37:40.150Z,2.03
2023-06-05T09:40:16.200Z,1.70
2023-06-05T09:42:44.925Z,2.15
2023-06-05T09:45:13.468Z,2.17
2023-06-05T09:47:53.574Z,1.77
2023-06-05T09:50:25.878Z,1.73
2023-06-05T09:52:57.866Z,2.17
2023-06-05T09:55:29.640Z,2.20
2023-06-05T09:58:02.070Z,1.92
2023-06-05T10:00:31.158Z,1.95
2023-06-05T10:03:00.746Z,2.00
2023-06-05T10:05:30.177Z,1.90
2023-06-05T10:07:59.950Z,1.70
2023-06-05T10:10:31.921Z,1.73
2023-06-05T10:13:00.864Z,2.00
2023-06-05T10:17:59.461Z,2.10
2023-06-05T10:20:28.827Z,1.80
2023-06-05T10:22:59.803Z,1.60
2023-06-05T10:25:31.514Z,2.30
2023-06-05T10:28:19.160Z,1.70
2023-06-05T10:31:23.668Z,1.88
2023-06-05T10:34:17.054Z,1.90
2023-06-05T10:37:01.033Z,2.05
2023-06-05T10:39:32.513Z,2.25
2023-06-05T10:42:02.804Z,2.10
2023-06-05T10:44:47.114Z,1.92
2023-06-05T10:47:56.212Z,2.13
2023-06-05T10:50:32.404Z,2.67
2023-06-05T10:53:01.649Z,2.08
2023-06-05T10:55:44.508Z,1.88
2023-06-05T10:58:16.617Z,1.90
2023-06-05T11:01:20.716Z,2.00
2023-06-05T11:03:57.521Z,1.80
2023-06-05T11:06:26.831Z,1.55
2023-06-05T11:09:13.748Z,1.58
2023-06-05T11:12:02.395Z,2.25
2023-06-05T11:14:49.045Z,1.90
2023-06-05T11:17:34.115Z,1.75
2023-06-05T11:20:06.604Z,1.75
2023-06-05T11:22:35.505Z,2.05
2023-06-05T11:27:53.480Z,2.10
2023-06-05T11:30:39.141Z,2.22
2023-06-05T11:33:15.910Z,1.52
2023-06-05T11:35:46.553Z,1.80
2023-06-05T11:38:18.803Z,2.00
2023-06-05T11:40:49.771Z,1.60
2023-06-05T11:43:18.663Z,1.67
2023-06-05T11:45:54.316Z,1.58
2023-06-05T11:48:23.699Z,1.80
2023-06-05T11:50:57.745Z,1.70
2023-06-05T11:53:27.292Z,1.73
2023-06-05T11:56:07.752Z,1.33
2023-06-05T11:58:38.638Z,1.38
2023-06-05T12:01:16.002Z,1.67
2023-06-05T12:03:44.853Z,1.65
2023-06-05T12:06:14.524Z,1.70
2023-06-05T12:08:44.154Z,1.50
2023-06-05T12:11:23.882Z,1.60
2023-06-05T12:13:53.868Z,1.48
2023-06-05T12:16:34.176Z,1.80
2023-06-05T12:19:13.943Z,1.67
2023-06-05T12:21:44.195Z,2.25
2023-06-05T12:24:13.187Z,2.45
2023-06-05T12:26:55.295Z,2.00
2023-06-05T12:29:26.380Z,1.85
2023-06-05T12:31:58.902Z,1.60
2023-06-05T12:37:31.235Z,2.08
2023-06-05T12:40:01.219Z,1.63
2023-06-05T12:42:37.716Z,1.73
2023-06-05T12:45:08.811Z,2.25
2023-06-05T12:47:40.015Z,1.58
2023-06-05T12:50:13.387Z,1.70
2023-06-05T12:52:43.168Z,1.80
2023-06-05T12:55:12.302Z,2.03
2023-06-05T12:57:41.975Z,1.67
2023-06-05T13:00:14.557Z,1.67
2023-06-05T13:02:47.030Z,2.17
2023-06-05T13:05:16.880Z,2.10
2023-06-05T13:07:46.330Z,2.10
2023-06-05T13:10:15.212Z,1.85
2023-06-05T13:12:44.464Z,2.63
2023-06-05T13:15:13.405Z,2.30
2023-06-05T13:17:42.260Z,3.10
2023-06-05T13:20:14.176Z,3.30
2023-06-05T13:22:43.717Z,2.75
2023-06-05T13:25:13.452Z,3.22
2023-06-05T13:27:42.185Z,4.30
2023-06-05T13:30:11.447Z,3.30
2023-06-05T13:32:40.620Z,2.50
2023-06-05T13:35:12.206Z,2.60
2023-06-05T13:37:41.909Z,1.90
2023-06-05T13:40:12.990Z,2.03
2023-06-05T13:42:41.917Z,1.63
2023-06-05T13:45:11.849Z,2.20
2023-06-05T13:47:40.554Z,2.10
2023-06-05T13:52:39.484Z,1.83
2023-06-05T13:55:09.450Z,1.55
2023-06-05T13:57:38.042Z,1.60
2023-06-05T14:02:36.387Z,1.60
2023-06-05T14:05:05.230Z,1.50
2023-06-05T14:07:44.554Z,1.55
2023-06-05T14:10:19.362Z,2.08
2023-06-05T14:12:48.667Z,1.50
2023-06-05T14:15:18.847Z,1.85
2023-06-05T14:17:50.903Z,1.63
2023-06-05T14:20:20.973Z,1.80
2023-06-05T14:22:49.663Z,1.67
2023-06-05T14:25:20.234Z,1.70
2023-06-05T14:27:49.053Z,1.60
2023-06-05T14:30:17.626Z,1.60
2023-06-05T14:32:46.324Z,1.75
2023-06-05T14:37:43.514Z,1.45
2023-06-05T14:40:12.739Z,1.40
2023-06-05T14:42:42.745Z,1.40
2023-06-05T14:45:12.269Z,1.58
2023-06-05T14:47:40.977Z,1.60
2023-06-05T14:50:10.313Z,1.80
2023-06-05T14:52:39.449Z,1.83
2023-06-05T14:55:10.379Z,1.90
2023-06-05T14:57:39.104Z,1.73
2023-06-05T15:00:10.351Z,1.92
2023-06-05T15:02:39.030Z,1.90
2023-06-05T15:05:09.018Z,1.90
2023-06-05T15:07:39.089Z,1.80
2023-06-05T15:10:09.723Z,1.70
2023-06-05T15:12:39.089Z,1.77
2023-06-05T15:15:20.587Z,1.80
2023-06-05T15:17:50.628Z,1.65
2023-06-05T15:20:20.468Z,1.73
2023-06-05T15:23:00.393Z,1.90
2023-06-05T15:25:41.163Z,1.67
2023-06-05T15:28:09.727Z,1.80
2023-06-05T15:30:41.470Z,2.00
2023-06-05T15:33:10.128Z,1.50
2023-06-05T15:35:43.835Z,2.22
2023-06-05T15:38:13.251Z,2.10
2023-06-05T15:40:45.161Z,2.00
2023-06-05T15:43:14.207Z,1.90
2023-06-05T15:45:46.639Z,2.00
2023-06-05T15:48:17.789Z,2.15
2023-06-05T15:50:46.509Z,2.22
2023-06-05T15:53:15.039Z,2.20
2023-06-05T15:55:43.532Z,2.17
2023-06-05T15:58:12.878Z,1.85
2023-06-05T16:00:41.367Z,2.25
2023-06-05T16:03:12.742Z,1.70
2023-06-05T16:05:42.059Z,1.80
2023-06-05T16:08:11.963Z,1.88
2023-06-05T16:10:40.569Z,2.13
2023-06-05T16:13:12.290Z,1.90
2023-06-05T16:15:42.766Z,1.70
2023-06-05T16:18:14.999Z,1.60
2023-06-05T16:20:43.685Z,1.90
2023-06-05T16:23:12.435Z,2.22
2023-06-05T16:25:41.507Z,1.98
2023-06-05T16:30:38.524Z,1.58
2023-06-05T16:33:07.142Z,1.80
2023-06-05T16:35:37.119Z,1.77
2023-06-05T16:38:07.012Z,1.70
2023-06-05T16:40:41.324Z,1.77
2023-06-05T16:43:12.349Z,1.88
2023-06-05T16:45:43.902Z,2.47
2023-06-05T16:48:14.116Z,2.13
2023-06-05T16:53:15.946Z,2.05
2023-06-05T16:55:44.572Z,1.98
2023-06-05T16:58:17.792Z,1.98
2023-06-05T17:00:50.766Z,1.92
2023-06-05T17:03:19.653Z,3.05
2023-06-05T17:05:52.511Z,1.90
2023-06-05T17:08:21.717Z,1.52
2023-06-05T17:13:18.635Z,1.58
2023-06-05T17:15:48.516Z,1.80
2023-06-05T17:18:17.230Z,1.70
2023-06-05T17:20:45.894Z,1.83
2023-06-05T17:23:15.908Z,1.90
2023-06-05T17:25:47.817Z,2.25
2023-06-05T17:28:24.355Z,1.65
2023-06-05T17:30:53.015Z,1.60
2023-06-05T17:33:21.870Z,2.30
2023-06-05T17:40:57.290Z,1.70
2023-06-05T17:43:26.056Z,1.70
2023-06-05T17:48:24.445Z,2.30
2023-06-05T17:50:53.372Z,2.92
2023-06-05T17:55:56.380Z,2.72
2023-06-05T17:58:25.024Z,2.28
2023-06-05T18:00:54.284Z,2.25
2023-06-05T18:03:24.151Z,2.47
2023-06-05T18:05:56.058Z,2.97
2023-06-05T18:08:26.137Z,2.22
2023-06-05T18:10:54.764Z,2.53
2023-06-05T18:13:23.339Z,2.78
2023-06-05T18:15:52.007Z,2.40
2023-06-05T18:18:26.968Z,3.08
2023-06-05T18:21:00.163Z,3.05
2023-06-05T18:23:33.576Z,3.33
2023-06-05T18:26:02.382Z,3.17
2023-06-05T18:28:31.381Z,3.10
2023-06-05T18:31:06.379Z,3.53
2023-06-05T18:33:52.959Z,3.28
2023-06-05T18:36:43.226Z,3.15
2023-06-05T18:39:16.093Z,3.13
2023-06-05T18:41:46.090Z,3.28
2023-06-05T18:44:15.685Z,3.67
2023-06-05T18:46:44.531Z,3.53
2023-06-05T18:51:49.333Z,3.58
2023-06-05T18:54:24.748Z,3.67
2023-06-05T18:56:53.667Z,3.90
2023-06-05T18:59:22.500Z,3.78
2023-06-05T19:01:52.405Z,3.90
2023-06-05T19:04:21.180Z,4.18
2023-06-05T19:06:49.972Z,3.83
2023-06-05T19:11:51.683Z,3.90
2023-06-05T19:14:20.225Z,3.97
2023-06-05T19:16:48.906Z,3.90
2023-06-05T19:21:45.981Z,3.85
2023-06-05T19:24:14.703Z,4.63
2023-06-05T19:26:43.486Z,3.90
2023-06-05T19:29:13.701Z,3.70
2023-06-05T19:31:42.388Z,3.60
2023-06-05T19:34:11.316Z,4.07
2023-06-05T19:39:08.430Z,4.25
2023-06-05T19:41:37.208Z,4.30
2023-06-05T19:44:06.263Z,6.57
2023-06-05T19:46:39.322Z,5.93
2023-06-05T19:49:10.031Z,5.05
2023-06-05T19:51:39.061Z,5.00
2023-06-05T19:54:08.378Z,4.60
2023-06-05T19:56:37.171Z,4.45
2023-06-05T20:01:39.018Z,4.13
2023-06-05T20:04:09.831Z,4.43
2023-06-05T20:06:38.442Z,4.40
2023-06-05T20:09:07.293Z,4.15
2023-06-05T20:11:35.909Z,4.18
2023-06-05T20:14:04.587Z,3.08
2023-06-05T20:16:33.161Z,3.42
2023-06-05T20:19:01.995Z,2.67
2023-06-05T20:21:35.436Z,2.97
2023-06-05T20:24:08.341Z,2.70
2023-06-05T20:26:37.304Z,2.63
2023-06-05T20:29:08.680Z,2.75
2023-06-05T20:31:37.532Z,2.80
2023-06-05T20:36:35.712Z,3.33
2023-06-05T20:39:04.781Z,3.10
2023-06-05T20:41:33.324Z,3.50
2023-06-05T20:44:01.839Z,3.58
2023-06-05T20:46:30.674Z,3.85
2023-06-05T20:49:02.132Z,3.55
2023-06-05T20:51:31.039Z,3.50
2023-06-05T20:54:01.049Z,3.28
2023-06-05T20:56:30.720Z,2.92
2023-06-05T20:58:59.543Z,2.60
2023-06-05T21:01:30.494Z,2.83
2023-06-05T21:04:00.472Z,3.10
2023-06-05T21:06:29.124Z,2.97
2023-06-05T21:08:57.879Z,2.83
2023-06-05T21:13:56.524Z,3.25
2023-06-05T21:16:26.594Z,2.67
2023-06-05T21:18:55.221Z,2.97
2023-06-05T21:21:23.685Z,2.50
2023-06-05T21:23:52.235Z,3.00
2023-06-05T21:26:21.727Z,2.65
2023-06-05T21:28:51.678Z,2.88
2023-06-05T21:31:20.361Z,3.08
2023-06-05T21:33:48.912Z,2.97
2023-06-05T21:36:17.410Z,2.97
2023-06-05T21:38:46.549Z,3.92
2023-06-05T21:41:16.369Z,5.35
2023-06-05T21:43:44.896Z,7.03
2023-06-05T21:46:15.098Z,7.35
2023-06-05T21:48:43.957Z,11.50
2023-06-05T21:51:12.676Z,11.50
2023-06-05T21:53:41.501Z,12.57
2023-06-05T21:56:10.089Z,18.08
2023-06-05T21:58:38.722Z,17.73
2023-06-05T22:01:07.689Z,17.50
2023-06-05T22:03:38.254Z,14.68
2023-06-05T22:06:08.146Z,11.60
2023-06-05T22:08:36.715Z,8.20
2023-06-05T22:11:05.779Z,6.97
2023-06-05T22:16:03.467Z,4.32
2023-06-05T22:18:32.424Z,4.82
2023-06-05T22:21:02.779Z,4.50
2023-06-05T22:23:31.561Z,4.30
2023-06-05T22:25:59.995Z,3.80
2023-06-05T22:28:28.442Z,3.60
2023-06-05T22:30:57.114Z,3.35
2023-06-05T22:33:26.438Z,3.72
2023-06-05T22:35:54.958Z,3.65
2023-06-05T22:38:27.586Z,3.20
2023-06-05T22:40:56.189Z,2.80
2023-06-05T22:43:24.744Z,3.75
2023-06-05T22:45:53.312Z,3.40
2023-06-05T22:48:21.811Z,3.13
2023-06-05T22:50:54.688Z,4.05
2023-06-05T22:53:25.726Z,3.47
2023-06-05T22:55:54.448Z,3.38
2023-06-05T22:58:22.930Z,3.38
2023-06-05T23:00:53.817Z,3.55
2023-06-05T23:03:22.514Z,3.10
2023-06-05T23:05:51.151Z,2.88
2023-06-05T23:08:19.913Z,3.72
2023-06-05T23:13:18.396Z,2.85
2023-06-05T23:15:46.828Z,2.85
2023-06-05T23:18:16.119Z,2.95
2023-06-05T23:20:44.771Z,2.80
2023-06-05T23:23:13.226Z,2.75
2023-06-05T23:25:44.492Z,3.47
2023-06-05T23:28:14.580Z,2.90
2023-06-05T23:30:43.360Z,3.15
2023-06-05T23:33:13.502Z,2.90
2023-06-05T23:35:42.472Z,2.85
2023-06-05T23:38:10.997Z,2.90
2023-06-05T23:40:39.516Z,2.60
2023-06-05T23:43:08.223Z,3.08
2023-06-05T23:45:38.351Z,2.67
2023-06-05T23:48:09.675Z,2.65
2023-06-05T23:50:38.183Z,2.58
2023-06-05T23:53:06.771Z,2.47
2023-06-05T23:55:35.270Z,2.72
2023-06-05T23:58:03.871Z,2.50
